Wallace, Idaho
Current Conditions -  °F | °C
As of 3:08 AM on Thursday 23 Oct 2014 (Local Time) from KMLP Reporting Station
Light Rain Light Rain  
Wind Chill: 31°   Ceiling: 400
Heat Index: 38°   Visibility: 2mi
Dew Point: 38°   Wind: 10mph
Humidity: 100%   Direction: 180°S
Pressure: 29.88"   Gusts: 24mph
Location:  47.47°N, 115.93°W
Report Text: KMLP 231008Z AUTO 18009G21KT 2SM -RA BR BKN004 OVC009 03/03 A2988 RMK AO2 VIS 1V4 P0001 T00330033
Loading
Personal Weather Stations






























Interactive Weather Map
Tropical Storm Tracking
New forecast layout! Learn more

10-Day Weather Forecast

Advertisements
Track Severe Weather on mobile